Time;durP1;ratioP1;P1;durP2;ratioP2;P2;SDS_P1;SDS_P2;PMS_P1;PMS_P2;Temp;Humidity;BMP_temperature;BMP_pressure;BME280_temperature;BME280_humidity;BME280_pressure;Samples;Min_cycle;Max_cycle;Signal;HPM_P1;HPM_P2
2020/12/23 00:00:54;;;;;;;132.23;47.65;;;;;;;;;;5071048;28;20055;-70
2020/12/23 00:03:20;;;;;;;124.68;43.88;;;;;;;;;;5070715;28;20052;-70
2020/12/23 00:05:45;;;;;;;120.97;46.13;;;;;;;;;;5070620;28;20452;-70
2020/12/23 00:08:11;;;;;;;119.78;44.53;;;;;;;;;;5071731;28;20009;-70
2020/12/23 00:10:36;;;;;;;123.43;45.63;;;;;;;;;;5070719;28;20021;-70
2020/12/23 00:13:02;;;;;;;128.57;44.60;;;;;;;;;;5070760;28;20026;-70
2020/12/23 00:15:28;;;;;;;123.07;44.90;;;;;;;;;;5070082;28;20362;-70
2020/12/23 00:17:54;;;;;;;128.40;46.08;;;;;;;;;;5071954;28;20020;-71
2020/12/23 00:20:20;;;;;;;131.05;45.95;;;;;;;;;;5070558;28;20016;-70
2020/12/23 00:22:45;;;;;;;123.30;46.30;;;;;;;;;;5053974;28;20027;-71
2020/12/23 00:25:10;;;;;;;128.02;47.22;;;;;;;;;;5071879;28;20469;-70
2020/12/23 00:27:36;;;;;;;123.40;46.60;;;;;;;;;;5071881;28;20487;-70
2020/12/23 00:30:03;;;;;;;112.85;44.75;;;;;;;;;;5071568;28;20009;-70
2020/12/23 00:32:29;;;;;;;121.07;43.78;;;;;;;;;;5090002;28;20131;-70
2020/12/23 00:34:54;;;;;;;119.68;42.95;;;;;;;;;;5073955;28;20095;-70
2020/12/23 00:37:20;;;;;;;120.20;44.63;;;;;;;;;;5073723;28;20023;-70
2020/12/23 00:39:45;;;;;;;108.95;41.72;;;;;;;;;;5091974;28;20020;-71
2020/12/23 00:42:11;;;;;;;114.63;43.58;;;;;;;;;;5091597;28;20044;-70
2020/12/23 00:44:36;;;;;;;118.57;46.40;;;;;;;;;;5091885;28;20024;-70
2020/12/23 00:47:02;;;;;;;121.43;45.53;;;;;;;;;;5091198;28;20020;-71
2020/12/23 00:49:27;;;;;;;114.88;43.70;;;;;;;;;;5091768;28;20384;-70
2020/12/23 00:51:53;;;;;;;117.03;44.97;;;;;;;;;;5073472;28;20483;-71
2020/12/23 00:54:18;;;;;;;114.68;44.08;;;;;;;;;;5073791;28;20016;-71
2020/12/23 00:56:44;;;;;;;112.57;45.33;;;;;;;;;;5077215;28;20035;-71
2020/12/23 00:59:09;;;;;;;113.63;42.10;;;;;;;;;;5095166;28;20023;-69
2020/12/23 01:01:35;;;;;;;108.75;43.05;;;;;;;;;;5060460;28;20020;-70
2020/12/23 01:04:01;;;;;;;110.97;42.53;;;;;;;;;;5076907;28;20070;-70
2020/12/23 01:06:26;;;;;;;109.65;43.97;;;;;;;;;;5095023;28;20504;-70
2020/12/23 01:08:52;;;;;;;105.60;39.92;;;;;;;;;;5077008;28;20103;-71
2020/12/23 01:11:17;;;;;;;110.38;41.97;;;;;;;;;;5094973;28;20020;-70
2020/12/23 01:13:43;;;;;;;117.20;44.70;;;;;;;;;;5076959;28;20020;-71
2020/12/23 01:16:09;;;;;;;123.82;44.75;;;;;;;;;;5094171;28;20012;-70
2020/12/23 01:18:34;;;;;;;123.07;46.78;;;;;;;;;;5094995;28;20142;-71
2020/12/23 01:21:00;;;;;;;116.63;46.83;;;;;;;;;;5095020;28;20043;-70
2020/12/23 01:23:25;;;;;;;120.85;46.60;;;;;;;;;;5076759;28;20108;-70
2020/12/23 01:25:51;;;;;;;123.25;46.42;;;;;;;;;;5076740;28;20632;-71
2020/12/23 01:28:17;;;;;;;123.10;50.13;;;;;;;;;;5076558;28;20126;-70
2020/12/23 01:30:42;;;;;;;136.80;48.10;;;;;;;;;;5059683;28;20513;-70
2020/12/23 01:33:08;;;;;;;114.97;44.90;;;;;;;;;;5076519;28;20020;-71
2020/12/23 01:35:34;;;;;;;128.38;47.53;;;;;;;;;;5076379;28;20032;-70
2020/12/23 01:38:01;;;;;;;124.28;45.22;;;;;;;;;;5059456;28;20487;-69
2020/12/23 01:40:26;;;;;;;119.28;45.30;;;;;;;;;;5094534;28;20085;-70
2020/12/23 01:42:51;;;;;;;130.20;48.28;;;;;;;;;;5094477;28;20016;-70
2020/12/23 01:45:17;;;;;;;127.40;46.70;;;;;;;;;;5058970;28;20019;-70
2020/12/23 01:47:44;;;;;;;127.32;50.90;;;;;;;;;;5094447;28;20096;-71
2020/12/23 01:50:11;;;;;;;125.38;47.13;;;;;;;;;;5075981;28;20020;-70
2020/12/23 01:52:36;;;;;;;128.68;48.30;;;;;;;;;;5094134;28;20100;-71
2020/12/23 01:55:02;;;;;;;127.32;48.58;;;;;;;;;;5076138;28;20019;-71
2020/12/23 01:57:27;;;;;;;137.43;48.20;;;;;;;;;;5094035;28;20532;-70
2020/12/23 01:59:53;;;;;;;138.68;50.83;;;;;;;;;;5094149;28;20020;-70
2020/12/23 02:02:28;;;;;;;125.85;47.63;;;;;;;;;;5075865;28;20061;-69
2020/12/23 02:04:53;;;;;;;126.50;47.95;;;;;;;;;;5075915;28;20032;-71
2020/12/23 02:07:20;;;;;;;126.00;48.65;;;;;;;;;;5058960;28;20074;-69
2020/12/23 02:09:47;;;;;;;139.75;50.35;;;;;;;;;;5093926;28;20084;-71
2020/12/23 02:12:13;;;;;;;131.70;48.47;;;;;;;;;;5075561;28;20411;-70
2020/12/23 02:14:38;;;;;;;151.50;53.35;;;;;;;;;;5093741;28;20020;-70
2020/12/23 02:17:03;;;;;;;133.27;51.38;;;;;;;;;;5075029;28;20361;-70
2020/12/23 02:19:29;;;;;;;137.98;51.63;;;;;;;;;;5093918;28;20012;-70
2020/12/23 02:21:54;;;;;;;132.60;51.05;;;;;;;;;;5093631;28;20124;-71
2020/12/23 02:24:20;;;;;;;129.00;47.95;;;;;;;;;;5075159;28;20024;-71
2020/12/23 02:26:47;;;;;;;120.85;48.45;;;;;;;;;;5075560;28;20016;-71
2020/12/23 02:29:12;;;;;;;151.73;55.15;;;;;;;;;;5058537;28;20012;-70
2020/12/23 02:31:38;;;;;;;141.32;53.90;;;;;;;;;;5075041;28;20504;-70
2020/12/23 02:34:03;;;;;;;143.93;54.22;;;;;;;;;;5093143;28;20443;-70
2020/12/23 02:36:29;;;;;;;131.98;49.45;;;;;;;;;;5058367;28;20432;-69
2020/12/23 02:38:54;;;;;;;138.05;47.22;;;;;;;;;;5075211;28;20074;-70
2020/12/23 02:41:19;;;;;;;135.60;48.72;;;;;;;;;;5093281;28;20091;-70
2020/12/23 02:43:45;;;;;;;120.22;46.00;;;;;;;;;;5093218;28;20358;-71
2020/12/23 02:46:10;;;;;;;122.97;47.60;;;;;;;;;;5092315;28;20091;-70
2020/12/23 02:48:36;;;;;;;118.35;46.17;;;;;;;;;;5093239;28;20032;-71
2020/12/23 02:51:01;;;;;;;122.68;46.55;;;;;;;;;;5092855;28;20027;-71
2020/12/23 02:53:27;;;;;;;122.15;44.50;;;;;;;;;;5074908;28;20385;-72
2020/12/23 02:55:52;;;;;;;126.72;46.13;;;;;;;;;;5093098;28;20031;-71
2020/12/23 02:58:18;;;;;;;125.28;48.95;;;;;;;;;;5092668;28;20074;-70
2020/12/23 03:00:43;;;;;;;119.03;45.30;;;;;;;;;;5058132;28;20020;-70
2020/12/23 03:03:09;;;;;;;113.07;44.42;;;;;;;;;;5074996;28;20016;-70
2020/12/23 03:05:34;;;;;;;109.85;43.15;;;;;;;;;;5057968;28;20415;-70
2020/12/23 03:07:59;;;;;;;113.22;45.03;;;;;;;;;;5074582;28;20020;-71
2020/12/23 03:10:25;;;;;;;116.60;43.80;;;;;;;;;;5074521;28;20153;-71
2020/12/23 03:12:50;;;;;;;109.20;44.20;;;;;;;;;;5074488;28;20484;-71
2020/12/23 03:15:16;;;;;;;106.97;43.20;;;;;;;;;;5057487;28;20012;-70
2020/12/23 03:17:41;;;;;;;101.18;41.92;;;;;;;;;;5092247;28;20031;-71
2020/12/23 03:20:07;;;;;;;105.40;41.97;;;;;;;;;;5074205;28;20016;-70
2020/12/23 03:22:32;;;;;;;97.97;40.28;;;;;;;;;;5074602;28;20073;-71
2020/12/23 03:24:58;;;;;;;94.85;40.72;;;;;;;;;;5092546;28;20024;-71
2020/12/23 03:27:23;;;;;;;91.20;37.35;;;;;;;;;;5074380;28;20043;-71
2020/12/23 03:29:49;;;;;;;94.80;38.45;;;;;;;;;;5057922;28;20073;-71
2020/12/23 03:32:14;;;;;;;96.10;40.65;;;;;;;;;;5070519;28;20091;-70
2020/12/23 03:34:40;;;;;;;99.55;40.15;;;;;;;;;;5070990;28;20017;-70
2020/12/23 03:37:05;;;;;;;96.72;41.47;;;;;;;;;;5054248;28;20021;-70
2020/12/23 03:39:31;;;;;;;103.68;42.13;;;;;;;;;;5054339;28;20020;-71
2020/12/23 03:41:57;;;;;;;105.25;41.75;;;;;;;;;;5070930;28;20447;-70
2020/12/23 03:44:22;;;;;;;102.65;41.47;;;;;;;;;;5070834;28;20024;-70
2020/12/23 03:46:48;;;;;;;110.80;42.17;;;;;;;;;;5071582;28;20462;-71
2020/12/23 03:49:13;;;;;;;94.15;39.50;;;;;;;;;;5070910;28;20024;-70
2020/12/23 03:51:39;;;;;;;93.53;40.42;;;;;;;;;;5070596;28;20024;-71
2020/12/23 03:54:04;;;;;;;91.47;39.03;;;;;;;;;;5071902;28;20024;-72
2020/12/23 03:56:30;;;;;;;92.00;38.67;;;;;;;;;;5072024;28;20020;-72
2020/12/23 03:58:55;;;;;;;95.78;39.83;;;;;;;;;;5072064;28;20024;-71
2020/12/23 04:01:20;;;;;;;94.03;37.90;;;;;;;;;;5071902;28;20016;-71
2020/12/23 04:03:46;;;;;;;90.57;39.88;;;;;;;;;;5072126;28;20023;-72
2020/12/23 04:06:11;;;;;;;87.38;38.03;;;;;;;;;;5053685;28;20074;-71
2020/12/23 04:08:38;;;;;;;88.38;38.42;;;;;;;;;;5070783;28;20052;-72
2020/12/23 04:11:04;;;;;;;93.38;41.97;;;;;;;;;;5054079;28;20032;-71
2020/12/23 04:13:29;;;;;;;82.85;36.67;;;;;;;;;;5053972;28;20044;-72
2020/12/23 04:15:55;;;;;;;87.15;36.53;;;;;;;;;;5069904;28;20067;-72
2020/12/23 04:18:20;;;;;;;87.90;37.95;;;;;;;;;;5072140;28;20016;-72
2020/12/23 04:20:45;;;;;;;83.03;36.00;;;;;;;;;;5053864;28;20056;-71
2020/12/23 04:23:12;;;;;;;84.20;38.50;;;;;;;;;;5071691;28;20044;-71
2020/12/23 04:25:39;;;;;;;85.95;37.85;;;;;;;;;;5071632;28;20108;-71
2020/12/23 04:28:05;;;;;;;87.18;36.08;;;;;;;;;;5053577;28;20031;-71
2020/12/23 04:30:30;;;;;;;87.05;36.25;;;;;;;;;;5074467;28;20017;-71
2020/12/23 04:32:56;;;;;;;84.78;37.53;;;;;;;;;;5077579;28;20396;-72
2020/12/23 04:35:21;;;;;;;98.13;40.80;;;;;;;;;;5095751;28;20016;-71
2020/12/23 04:37:47;;;;;;;99.50;43.97;;;;;;;;;;5077627;28;20024;-71
2020/12/23 04:40:12;;;;;;;104.28;43.90;;;;;;;;;;5077347;28;20008;-71
2020/12/23 04:42:38;;;;;;;95.97;40.97;;;;;;;;;;5077501;28;20047;-71
2020/12/23 04:45:04;;;;;;;100.82;39.55;;;;;;;;;;5095714;28;20111;-71
2020/12/23 04:47:31;;;;;;;88.78;40.50;;;;;;;;;;5094918;28;20381;-71
2020/12/23 04:49:56;;;;;;;82.55;36.97;;;;;;;;;;5077505;28;20027;-71
2020/12/23 04:52:29;;;;;;;77.53;36.42;;;;;;;;;;5060149;28;20024;-71
2020/12/23 04:54:55;;;;;;;89.88;40.55;;;;;;;;;;5095466;28;20027;-72
2020/12/23 04:57:21;;;;;;;101.13;40.33;;;;;;;;;;5060725;28;20016;-71
2020/12/23 04:59:47;;;;;;;97.07;40.80;;;;;;;;;;5077368;28;20036;-71
2020/12/23 05:02:18;;;;;;;103.43;42.95;;;;;;;;;;5076938;28;20062;-70
2020/12/23 05:04:44;;;;;;;91.18;39.92;;;;;;;;;;5095175;28;20013;-71
2020/12/23 05:07:10;;;;;;;102.10;40.20;;;;;;;;;;5095203;28;20066;-71
2020/12/23 05:09:35;;;;;;;95.07;40.63;;;;;;;;;;5095185;28;20042;-71
2020/12/23 05:12:01;;;;;;;94.95;40.58;;;;;;;;;;5076802;28;20480;-71
2020/12/23 05:14:27;;;;;;;91.00;39.90;;;;;;;;;;5076981;28;20034;-71
2020/12/23 05:16:52;;;;;;;93.55;42.97;;;;;;;;;;5059594;28;20016;-72
2020/12/23 05:19:18;;;;;;;181.45;70.25;;;;;;;;;;5060063;28;20016;-71
2020/12/23 05:21:44;;;;;;;145.82;60.35;;;;;;;;;;5076828;28;20031;-72
2020/12/23 05:24:10;;;;;;;122.68;51.17;;;;;;;;;;5094718;28;20357;-71
2020/12/23 05:26:40;;;;;;;125.15;50.35;;;;;;;;;;5076578;28;20113;-71
2020/12/23 05:29:07;;;;;;;138.65;57.80;;;;;;;;;;5076815;28;20016;-71
2020/12/23 05:31:34;;;;;;;111.05;46.58;;;;;;;;;;5094425;28;20115;-71
2020/12/23 05:33:59;;;;;;;110.32;46.65;;;;;;;;;;5076269;28;20490;-71
2020/12/23 05:36:25;;;;;;;113.30;45.33;;;;;;;;;;5076587;28;20012;-71
2020/12/23 05:38:51;;;;;;;98.28;42.60;;;;;;;;;;5059696;28;20020;-71
2020/12/23 05:41:16;;;;;;;105.90;43.55;;;;;;;;;;5059168;28;20020;-71
2020/12/23 05:43:42;;;;;;;117.68;47.08;;;;;;;;;;5076247;28;20384;-71
2020/12/23 05:46:08;;;;;;;117.82;48.58;;;;;;;;;;5058786;28;20016;-71
2020/12/23 05:48:34;;;;;;;125.32;45.83;;;;;;;;;;5076331;28;20028;-71
2020/12/23 05:51:01;;;;;;;118.45;48.83;;;;;;;;;;5076392;28;20028;-72
2020/12/23 05:53:27;;;;;;;113.70;46.70;;;;;;;;;;5076314;28;20089;-71
2020/12/23 05:55:52;;;;;;;111.15;45.28;;;;;;;;;;5094275;28;20354;-71
2020/12/23 05:58:21;;;;;;;104.57;42.13;;;;;;;;;;5075829;28;20070;-70
2020/12/23 06:00:47;;;;;;;99.78;39.53;;;;;;;;;;5076041;28;20024;-70
2020/12/23 06:03:19;;;;;;;91.80;39.75;;;;;;;;;;5094037;28;20016;-70
2020/12/23 06:05:51;;;;;;;141.63;55.78;;;;;;;;;;5076208;28;20035;-70
2020/12/23 06:08:19;;;;;;;115.38;43.17;;;;;;;;;;5075525;28;20114;-70
2020/12/23 06:10:49;;;;;;;111.80;48.42;;;;;;;;;;5075823;28;20016;-71
2020/12/23 06:13:20;;;;;;;102.57;42.38;;;;;;;;;;5094019;28;20041;-71
2020/12/23 06:15:57;;;;;;;102.43;43.28;;;;;;;;;;5075377;28;20031;-71
2020/12/23 06:18:23;;;;;;;95.10;40.65;;;;;;;;;;5075630;28;20028;-71
2020/12/23 06:20:58;;;;;;;96.40;42.30;;;;;;;;;;5059076;28;20059;-72
2020/12/23 06:23:33;;;;;;;89.38;38.67;;;;;;;;;;5076829;28;20027;-72
2020/12/23 06:26:00;;;;;;;79.68;36.35;;;;;;;;;;5093442;28;20105;-71
2020/12/23 06:28:26;;;;;;;90.97;36.90;;;;;;;;;;5075352;28;20025;-71
2020/12/23 06:30:52;;;;;;;82.55;37.00;;;;;;;;;;5075167;28;20052;-71
2020/12/23 06:33:18;;;;;;;78.80;37.10;;;;;;;;;;5093305;28;20028;-71
2020/12/23 06:35:43;;;;;;;83.45;37.47;;;;;;;;;;5058715;28;20020;-71
2020/12/23 06:38:19;;;;;;;89.65;39.92;;;;;;;;;;5075222;28;20074;-70
2020/12/23 06:41:00;;;;;;;90.55;39.00;;;;;;;;;;5075202;28;20038;-70
2020/12/23 06:43:35;;;;;;;87.80;36.45;;;;;;;;;;5075327;28;20020;-71
2020/12/23 06:46:00;;;;;;;74.00;34.03;;;;;;;;;;5092411;28;20651;-72
2020/12/23 06:48:36;;;;;;;61.90;30.33;;;;;;;;;;5075918;28;20091;-71
2020/12/23 06:51:02;;;;;;;70.18;31.35;;;;;;;;;;5084148;28;20032;-70
2020/12/23 06:53:38;;;;;;;69.95;30.52;;;;;;;;;;5072233;28;20020;-71
2020/12/23 06:56:03;;;;;;;62.58;29.23;;;;;;;;;;5075373;28;20015;-70
2020/12/23 06:58:37;;;;;;;69.45;29.08;;;;;;;;;;5092909;28;20452;-71
2020/12/23 07:01:12;;;;;;;60.35;29.38;;;;;;;;;;5092337;28;20012;-69
2020/12/23 07:03:37;;;;;;;61.80;28.70;;;;;;;;;;5080059;28;20091;-70
2020/12/23 07:06:03;;;;;;;64.15;30.15;;;;;;;;;;5061689;28;20100;-69
2020/12/23 07:08:28;;;;;;;63.30;31.08;;;;;;;;;;5082586;28;20090;-75
2020/12/23 07:11:00;;;;;;;67.70;30.67;;;;;;;;;;5083548;28;20061;-70
2020/12/23 07:13:26;;;;;;;65.70;30.00;;;;;;;;;;5062866;28;20020;-72
2020/12/23 07:15:54;;;;;;;67.72;31.38;;;;;;;;;;5069710;28;20495;-69
2020/12/23 07:18:23;;;;;;;58.15;29.23;;;;;;;;;;5037811;28;20025;-68
2020/12/23 07:20:51;;;;;;;58.47;27.45;;;;;;;;;;5082970;28;20014;-69
2020/12/23 07:23:17;;;;;;;56.80;27.50;;;;;;;;;;5074676;28;20016;-71
2020/12/23 07:25:52;;;;;;;55.03;29.13;;;;;;;;;;5074422;28;20023;-68
2020/12/23 07:28:19;;;;;;;57.92;27.45;;;;;;;;;;5080039;28;20017;-69
2020/12/23 07:30:45;;;;;;;53.92;26.55;;;;;;;;;;5059575;28;20041;-72
2020/12/23 07:33:20;;;;;;;59.33;29.15;;;;;;;;;;5037727;28;20050;-75
2020/12/23 07:35:53;;;;;;;63.97;31.90;;;;;;;;;;5068480;28;20025;-75
2020/12/23 07:38:20;;;;;;;58.72;26.80;;;;;;;;;;5052629;28;20017;-73
2020/12/23 07:40:46;;;;;;;51.75;26.50;;;;;;;;;;5068415;28;20044;-74
2020/12/23 07:43:12;;;;;;;51.50;24.70;;;;;;;;;;5072194;28;20055;-75
2020/12/23 07:45:38;;;;;;;45.63;22.80;;;;;;;;;;5060498;28;20032;-76
2020/12/23 07:48:05;;;;;;;50.28;24.58;;;;;;;;;;5050994;28;20025;-74
2020/12/23 07:50:33;;;;;;;46.92;22.73;;;;;;;;;;5058454;28;20056;-78
2020/12/23 07:53:10;;;;;;;46.63;22.75;;;;;;;;;;5053624;28;20021;-76
2020/12/23 07:55:37;;;;;;;42.05;22.05;;;;;;;;;;5052383;28;20027;-70
2020/12/23 07:58:02;;;;;;;44.25;24.25;;;;;;;;;;5046281;28;20040;-73
2020/12/23 08:00:28;;;;;;;47.63;22.83;;;;;;;;;;5061679;28;20077;-75
2020/12/23 08:02:54;;;;;;;43.70;22.38;;;;;;;;;;5065697;28;20016;-74
2020/12/23 08:05:19;;;;;;;44.17;23.17;;;;;;;;;;5060249;28;20440;-73
2020/12/23 08:07:45;;;;;;;47.75;24.55;;;;;;;;;;5067220;28;20020;-74
2020/12/23 08:10:20;;;;;;;42.05;22.48;;;;;;;;;;5056035;28;20048;-73
2020/12/23 08:12:51;;;;;;;45.72;22.45;;;;;;;;;;5070406;28;20032;-73
2020/12/23 08:15:17;;;;;;;50.08;24.73;;;;;;;;;;5072383;28;20482;-72
2020/12/23 08:17:43;;;;;;;41.50;21.60;;;;;;;;;;5063074;28;20017;-72
2020/12/23 08:20:08;;;;;;;45.83;22.58;;;;;;;;;;5047779;28;20493;-69
2020/12/23 08:22:35;;;;;;;44.90;20.77;;;;;;;;;;5065359;28;20020;-73
2020/12/23 08:25:01;;;;;;;37.75;19.88;;;;;;;;;;5063779;28;20017;-72
2020/12/23 08:27:27;;;;;;;41.45;21.35;;;;;;;;;;5057706;28;20791;-74
2020/12/23 08:29:53;;;;;;;39.10;20.35;;;;;;;;;;5065320;28;20104;-78
2020/12/23 08:32:22;;;;;;;41.00;20.77;;;;;;;;;;5072266;28;20557;-71
2020/12/23 08:34:48;;;;;;;43.63;21.08;;;;;;;;;;5075404;28;20016;-75
2020/12/23 08:37:23;;;;;;;41.15;21.17;;;;;;;;;;5041202;28;20024;-74
2020/12/23 08:39:52;;;;;;;36.67;18.83;;;;;;;;;;5057103;28;20092;-69
2020/12/23 08:42:18;;;;;;;38.75;19.77;;;;;;;;;;5058656;28;20438;-70
2020/12/23 08:44:43;;;;;;;32.97;17.65;;;;;;;;;;5078537;28;20020;-70
2020/12/23 08:47:10;;;;;;;33.08;18.38;;;;;;;;;;5085315;28;20012;-73
2020/12/23 08:49:45;;;;;;;34.80;18.52;;;;;;;;;;5083615;28;20074;-79
2020/12/23 08:52:20;;;;;;;34.63;17.20;;;;;;;;;;5056896;28;20504;-78
2020/12/23 08:54:46;;;;;;;35.33;20.17;;;;;;;;;;5057286;28;20469;-78
2020/12/23 08:57:14;;;;;;;37.25;18.80;;;;;;;;;;5076537;28;20020;-78
2020/12/23 08:59:40;;;;;;;44.17;19.90;;;;;;;;;;5057720;28;20028;-74
2020/12/23 09:02:09;;;;;;;35.67;18.65;;;;;;;;;;5075114;28;20024;-73
2020/12/23 09:04:35;;;;;;;;;;;;;;;;;;5076252;28;20034;-68
2020/12/23 09:07:00;;;;;;;39.38;20.20;;;;;;;;;;5082806;28;19912;-72
2020/12/23 09:09:26;;;;;;;33.58;16.52;;;;;;;;;;5064197;28;20012;-71
2020/12/23 09:11:52;;;;;;;36.65;18.95;;;;;;;;;;5089039;28;20028;-72
2020/12/23 09:14:19;;;;;;;37.83;19.58;;;;;;;;;;5065181;28;20053;-70
2020/12/23 09:16:54;;;;;;;38.38;18.17;;;;;;;;;;5062190;28;20025;-71
2020/12/23 09:19:19;;;;;;;36.30;19.08;;;;;;;;;;5078249;28;20026;-70
2020/12/23 09:21:54;;;;;;;36.65;18.35;;;;;;;;;;5085212;28;20121;-69
2020/12/23 09:24:21;;;;;;;39.38;18.65;;;;;;;;;;5094107;28;20016;-67
2020/12/23 09:26:47;;;;;;;38.50;18.48;;;;;;;;;;5094245;28;20069;-67
2020/12/23 09:29:12;;;;;;;39.15;18.95;;;;;;;;;;5076559;28;20013;-67
2020/12/23 09:31:48;;;;;;;33.45;17.40;;;;;;;;;;5094238;28;20050;-67
2020/12/23 09:34:22;;;;;;;36.15;17.83;;;;;;;;;;5080107;28;20434;-67
2020/12/23 09:36:53;;;;;;;32.45;17.83;;;;;;;;;;5096488;28;20050;-67
2020/12/23 09:39:19;;;;;;;29.70;16.60;;;;;;;;;;5094839;28;20073;-67
2020/12/23 09:41:44;;;;;;;37.28;18.83;;;;;;;;;;5075906;28;20426;-67
2020/12/23 09:44:09;;;;;;;29.30;17.58;;;;;;;;;;5094090;28;20012;-67
2020/12/23 09:46:35;;;;;;;32.90;16.52;;;;;;;;;;5075567;28;20024;-67
2020/12/23 09:49:00;;;;;;;36.42;17.67;;;;;;;;;;5073626;28;20088;-68
2020/12/23 09:51:26;;;;;;;36.15;17.15;;;;;;;;;;5056220;28;20122;-68
2020/12/23 09:53:51;;;;;;;32.83;17.23;;;;;;;;;;5074043;28;20458;-67
2020/12/23 09:56:17;;;;;;;33.55;18.55;;;;;;;;;;5073364;28;20025;-68
2020/12/23 09:58:42;;;;;;;35.45;17.02;;;;;;;;;;5078781;28;20032;-68
2020/12/23 10:01:08;;;;;;;36.13;17.63;;;;;;;;;;5083111;28;20012;-69
2020/12/23 10:03:33;;;;;;;34.17;16.17;;;;;;;;;;5058899;28;20546;-70
2020/12/23 10:05:59;;;;;;;34.47;16.83;;;;;;;;;;5068975;28;20028;-69
2020/12/23 10:08:24;;;;;;;31.98;16.83;;;;;;;;;;5078841;28;20086;-69
2020/12/23 10:10:50;;;;;;;34.75;17.65;;;;;;;;;;5083801;28;20206;-69
2020/12/23 10:13:15;;;;;;;37.10;17.42;;;;;;;;;;5093915;28;20065;-68
2020/12/23 10:15:41;;;;;;;31.10;17.45;;;;;;;;;;5084809;28;20058;-69
2020/12/23 10:18:06;;;;;;;27.42;16.23;;;;;;;;;;5072964;28;20032;-68
2020/12/23 10:20:32;;;;;;;32.08;16.55;;;;;;;;;;5081489;28;20056;-67
2020/12/23 10:22:58;;;;;;;27.80;15.63;;;;;;;;;;5093534;28;20020;-66
2020/12/23 10:25:23;;;;;;;27.92;15.55;;;;;;;;;;5084197;28;20020;-66
2020/12/23 10:27:48;;;;;;;29.60;16.85;;;;;;;;;;5081865;28;20027;-65
2020/12/23 10:30:14;;;;;;;35.03;15.73;;;;;;;;;;5089134;28;20024;-67
2020/12/23 10:32:39;;;;;;;38.03;16.75;;;;;;;;;;5081287;28;20412;-66
2020/12/23 10:35:05;;;;;;;27.83;15.45;;;;;;;;;;5075157;28;20012;-65
2020/12/23 10:37:30;;;;;;;36.25;16.85;;;;;;;;;;5074973;28;20480;-65
2020/12/23 10:39:56;;;;;;;34.75;16.83;;;;;;;;;;5085521;28;20028;-68
2020/12/23 10:42:22;;;;;;;28.63;17.00;;;;;;;;;;5064241;28;20417;-68
2020/12/23 10:44:47;;;;;;;41.00;17.30;;;;;;;;;;5064128;28;20020;-68
2020/12/23 10:47:13;;;;;;;33.95;18.15;;;;;;;;;;5080555;28;20023;-68
2020/12/23 10:49:38;;;;;;;31.33;16.60;;;;;;;;;;5062748;28;20032;-68
2020/12/23 10:52:04;;;;;;;42.55;20.98;;;;;;;;;;5087412;28;20027;-68
2020/12/23 10:54:30;;;;;;;38.10;18.13;;;;;;;;;;5080142;28;20481;-68
2020/12/23 10:56:56;;;;;;;33.45;17.83;;;;;;;;;;5063772;28;20055;-68
2020/12/23 10:59:22;;;;;;;39.55;18.98;;;;;;;;;;5063789;28;20017;-68
2020/12/23 11:01:57;;;;;;;34.03;17.35;;;;;;;;;;5065273;28;20020;-68
2020/12/23 11:04:22;;;;;;;37.90;18.83;;;;;;;;;;5080470;28;20059;-68
2020/12/23 11:06:49;;;;;;;28.48;16.55;;;;;;;;;;5068257;28;20060;-68
2020/12/23 11:09:14;;;;;;;34.95;18.25;;;;;;;;;;5062292;28;20028;-68
2020/12/23 11:11:40;;;;;;;28.27;15.52;;;;;;;;;;5058396;28;20017;-68
2020/12/23 11:14:05;;;;;;;33.90;16.20;;;;;;;;;;5065411;28;20476;-68
2020/12/23 11:16:31;;;;;;;35.72;17.90;;;;;;;;;;5072804;28;20465;-69
2020/12/23 11:18:56;;;;;;;34.13;16.92;;;;;;;;;;5082218;28;20028;-69
2020/12/23 11:21:22;;;;;;;40.13;18.48;;;;;;;;;;5075422;28;20028;-68
2020/12/23 11:23:47;;;;;;;33.53;18.20;;;;;;;;;;5088863;28;20028;-69
2020/12/23 11:26:15;;;;;;;34.67;18.27;;;;;;;;;;5074312;28;20101;-69
2020/12/23 11:28:40;;;;;;;31.85;15.50;;;;;;;;;;5070345;28;20020;-69
2020/12/23 11:31:06;;;;;;;36.80;16.73;;;;;;;;;;5050960;28;20048;-69
2020/12/23 11:33:31;;;;;;;29.85;16.80;;;;;;;;;;5059214;28;20012;-70
2020/12/23 11:35:57;;;;;;;38.10;16.73;;;;;;;;;;5072171;28;20021;-69
2020/12/23 11:38:23;;;;;;;27.60;16.45;;;;;;;;;;5071737;28;20469;-69
2020/12/23 11:40:49;;;;;;;35.50;15.75;;;;;;;;;;5072120;28;20016;-69
2020/12/23 11:43:14;;;;;;;27.25;15.13;;;;;;;;;;5054214;28;20021;-72
2020/12/23 11:45:40;;;;;;;28.58;16.23;;;;;;;;;;5050442;28;20421;-70
2020/12/23 11:48:05;;;;;;;28.65;16.15;;;;;;;;;;5051905;28;20021;-72
2020/12/23 11:50:31;;;;;;;31.95;15.82;;;;;;;;;;5050564;28;20037;-73
2020/12/23 11:52:56;;;;;;;30.38;15.48;;;;;;;;;;5050732;28;20453;-73
2020/12/23 11:55:21;;;;;;;26.85;14.32;;;;;;;;;;5052201;28;20017;-74
2020/12/23 11:57:47;;;;;;;25.40;14.57;;;;;;;;;;5052217;28;20017;-73
2020/12/23 12:00:13;;;;;;;31.50;15.70;;;;;;;;;;5050378;28;20017;-69
2020/12/23 12:02:38;;;;;;;29.80;14.85;;;;;;;;;;5033979;28;20017;-72
2020/12/23 12:05:04;;;;;;;24.35;14.48;;;;;;;;;;5050345;28;20072;-70
2020/12/23 12:07:30;;;;;;;22.88;12.85;;;;;;;;;;5050705;28;20538;-72
2020/12/23 12:09:56;;;;;;;24.80;14.05;;;;;;;;;;5050858;28;20058;-71
2020/12/23 12:12:24;;;;;;;23.75;13.27;;;;;;;;;;5052283;28;20044;-70
2020/12/23 12:14:50;;;;;;;19.58;12.70;;;;;;;;;;5051890;28;20472;-68
2020/12/23 12:17:15;;;;;;;20.98;11.35;;;;;;;;;;5051212;28;20017;-69
2020/12/23 12:19:41;;;;;;;20.13;10.85;;;;;;;;;;5054099;28;20020;-67
2020/12/23 12:22:06;;;;;;;20.10;10.77;;;;;;;;;;5055081;28;20024;-68
2020/12/23 12:24:32;;;;;;;24.52;11.98;;;;;;;;;;5064101;28;20112;-68
2020/12/23 12:26:57;;;;;;;22.48;11.20;;;;;;;;;;5051726;28;20017;-67
2020/12/23 12:29:22;;;;;;;20.38;10.55;;;;;;;;;;5050498;28;20385;-67
2020/12/23 12:31:50;;;;;;;18.00;10.38;;;;;;;;;;5050197;28;20386;-69
2020/12/23 12:34:16;;;;;;;21.45;10.55;;;;;;;;;;5051747;28;20033;-68
2020/12/23 12:36:41;;;;;;;19.60;10.05;;;;;;;;;;5051753;28;20104;-65
2020/12/23 12:39:07;;;;;;;15.63;7.85;;;;;;;;;;5051873;28;20380;-66
2020/12/23 12:41:32;;;;;;;16.13;8.60;;;;;;;;;;5051318;28;20303;-68
2020/12/23 12:43:57;;;;;;;23.20;9.57;;;;;;;;;;5050092;28;20488;-68
2020/12/23 12:46:23;;;;;;;13.55;8.20;;;;;;;;;;5049725;28;20052;-68
2020/12/23 12:48:49;;;;;;;18.73;7.85;;;;;;;;;;5050396;28;20013;-68
2020/12/23 12:51:14;;;;;;;16.13;8.30;;;;;;;;;;5053470;28;20104;-68
2020/12/23 12:53:40;;;;;;;16.20;8.10;;;;;;;;;;5054028;28;20434;-68
2020/12/23 12:56:06;;;;;;;15.57;8.30;;;;;;;;;;5055227;28;20020;-68
2020/12/23 12:58:32;;;;;;;16.92;8.63;;;;;;;;;;5055463;28;20112;-68
2020/12/23 13:00:58;;;;;;;15.48;8.88;;;;;;;;;;5055519;28;20063;-68
2020/12/23 13:03:23;;;;;;;15.02;8.82;;;;;;;;;;5055208;28;20024;-68
2020/12/23 13:05:51;;;;;;;17.77;8.38;;;;;;;;;;5055070;28;20017;-68
2020/12/23 13:08:17;;;;;;;14.85;8.50;;;;;;;;;;5053924;28;20187;-68
2020/12/23 13:10:43;;;;;;;16.40;9.15;;;;;;;;;;5053626;28;20100;-68
2020/12/23 13:13:08;;;;;;;15.85;8.93;;;;;;;;;;5053985;28;20119;-68
2020/12/23 13:15:34;;;;;;;14.48;8.18;;;;;;;;;;5054211;28;20016;-68
2020/12/23 13:18:00;;;;;;;16.92;9.82;;;;;;;;;;5054483;28;20044;-68
2020/12/23 13:20:25;;;;;;;16.33;8.75;;;;;;;;;;5054957;28;20017;-68
2020/12/23 13:22:51;;;;;;;15.15;8.45;;;;;;;;;;5053425;28;20366;-68
2020/12/23 13:25:16;;;;;;;15.35;8.13;;;;;;;;;;5053366;28;20029;-68
2020/12/23 13:27:42;;;;;;;15.57;8.73;;;;;;;;;;5053071;28;20028;-68
2020/12/23 13:30:07;;;;;;;17.40;9.32;;;;;;;;;;5036579;28;20028;-68
2020/12/23 13:32:33;;;;;;;18.05;9.68;;;;;;;;;;5070881;28;20049;-67
2020/12/23 13:34:59;;;;;;;17.90;9.52;;;;;;;;;;5074377;28;20025;-68
2020/12/23 13:37:25;;;;;;;16.67;8.93;;;;;;;;;;5074378;28;20489;-68
2020/12/23 13:39:50;;;;;;;16.75;9.88;;;;;;;;;;5074500;28;20021;-68
2020/12/23 13:42:16;;;;;;;17.50;9.27;;;;;;;;;;5056371;28;21059;-67
2020/12/23 13:44:41;;;;;;;19.52;10.45;;;;;;;;;;5074143;28;20024;-67
2020/12/23 13:47:07;;;;;;;18.13;9.57;;;;;;;;;;5073766;28;20017;-68
2020/12/23 13:49:32;;;;;;;17.23;9.88;;;;;;;;;;5074418;28;20480;-68
2020/12/23 13:51:58;;;;;;;18.70;9.77;;;;;;;;;;5073803;28;20060;-68
2020/12/23 13:54:23;;;;;;;20.98;10.82;;;;;;;;;;5074176;28;20032;-67
2020/12/23 13:56:50;;;;;;;17.48;8.60;;;;;;;;;;5039527;28;20029;-67
2020/12/23 13:59:16;;;;;;;20.77;9.05;;;;;;;;;;5039526;28;20098;-67
2020/12/23 14:01:42;;;;;;;27.15;9.68;;;;;;;;;;5073639;28;20074;-67
2020/12/23 14:04:07;;;;;;;16.63;8.95;;;;;;;;;;5055675;28;20017;-67
2020/12/23 14:06:33;;;;;;;23.30;11.25;;;;;;;;;;5073791;28;20017;-68
2020/12/23 14:08:58;;;;;;;16.52;9.23;;;;;;;;;;5039383;28;20059;-68